createdAt,value
2023-06-19T00:00:26.848Z,18.33
2023-06-19T00:01:29.180Z,22.67
2023-06-19T00:02:33.908Z,18.27
2023-06-19T00:03:36.767Z,19.40
2023-06-19T00:04:41.494Z,28.15
2023-06-19T00:05:43.665Z,42.53
2023-06-19T00:06:49.628Z,31.63
2023-06-19T00:07:52.122Z,46.42
2023-06-19T00:08:59.471Z,22.25
2023-06-19T00:10:01.589Z,15.95
2023-06-19T00:11:06.643Z,19.58
2023-06-19T00:12:09.127Z,22.02
2023-06-19T00:13:13.800Z,29.50
2023-06-19T00:14:16.057Z,28.88
2023-06-19T00:15:21.067Z,20.45
2023-06-19T00:16:26.310Z,27.52
2023-06-19T00:17:31.875Z,26.20
2023-06-19T00:18:41.484Z,16.98
2023-06-19T00:19:46.650Z,54.85
2023-06-19T00:20:48.845Z,52.47
2023-06-19T00:21:58.334Z,36.88
2023-06-19T00:23:00.538Z,39.10
2023-06-19T00:24:08.797Z,42.30
2023-06-19T00:25:11.792Z,35.20
2023-06-19T00:26:16.483Z,40.13
2023-06-19T00:27:18.631Z,30.48
2023-06-19T00:28:23.434Z,39.65
2023-06-19T00:29:29.414Z,38.45
2023-06-19T00:30:34.122Z,22.85
2023-06-19T00:31:38.465Z,108.47
2023-06-19T00:32:51.230Z,37.83
2023-06-19T00:33:53.452Z,37.72
2023-06-19T00:34:58.385Z,22.17
2023-06-19T00:36:00.614Z,26.55
2023-06-19T00:37:05.306Z,20.80
2023-06-19T00:38:09.383Z,27.02
2023-06-19T00:39:16.706Z,23.27
2023-06-19T00:40:28.363Z,21.95
2023-06-19T00:42:35.267Z,15.75
2023-06-19T00:43:39.971Z,26.08
2023-06-19T00:44:42.665Z,30.13
2023-06-19T00:45:47.431Z,41.28
2023-06-19T00:46:52.942Z,106.88
2023-06-19T00:48:00.205Z,30.77
2023-06-19T00:49:02.646Z,19.60
2023-06-19T00:50:08.824Z,30.60
2023-06-19T00:51:11.215Z,21.02
2023-06-19T00:52:15.993Z,21.52
2023-06-19T00:53:20.629Z,36.00
2023-06-19T00:54:28.376Z,17.60
2023-06-19T00:55:31.170Z,26.05
2023-06-19T00:56:36.462Z,30.85
2023-06-19T00:57:40.815Z,29.83
2023-06-19T00:58:45.622Z,37.53
2023-06-19T00:59:47.959Z,49.05
2023-06-19T01:01:07.483Z,39.47
2023-06-19T01:02:13.691Z,26.73
2023-06-19T01:03:17.796Z,24.85
2023-06-19T01:04:23.627Z,17.27
2023-06-19T01:05:26.663Z,24.48
2023-06-19T01:06:39.600Z,13.55
2023-06-19T01:07:47.422Z,21.70
2023-06-19T01:09:00.160Z,39.80
2023-06-19T01:10:09.052Z,21.20
2023-06-19T01:11:26.049Z,19.63
2023-06-19T01:12:36.465Z,23.90
2023-06-19T01:13:46.841Z,23.88
2023-06-19T01:14:56.905Z,28.80
2023-06-19T01:16:03.584Z,14.70
2023-06-19T01:17:07.720Z,22.73
2023-06-19T01:18:14.150Z,19.77
2023-06-19T01:19:21.077Z,21.10
2023-06-19T01:20:26.273Z,20.77
2023-06-19T01:21:28.556Z,25.70
2023-06-19T01:22:36.098Z,22.10
2023-06-19T01:23:38.247Z,23.50
2023-06-19T01:24:43.006Z,21.90
2023-06-19T01:25:45.192Z,25.67
2023-06-19T01:26:49.974Z,27.67
2023-06-19T01:27:52.627Z,26.15
2023-06-19T01:28:58.608Z,34.53
2023-06-19T01:30:01.361Z,25.77
2023-06-19T01:31:06.971Z,26.48
2023-06-19T01:32:15.006Z,28.40
2023-06-19T01:33:24.515Z,34.15
2023-06-19T01:34:28.557Z,27.17
2023-06-19T01:35:36.838Z,25.25
2023-06-19T01:36:39.125Z,26.90
2023-06-19T01:37:47.435Z,29.52
2023-06-19T01:38:50.654Z,29.75
2023-06-19T01:39:56.349Z,29.42
2023-06-19T01:41:00.701Z,29.27
2023-06-19T01:42:06.679Z,19.63
2023-06-19T01:43:09.569Z,26.55
2023-06-19T01:44:14.729Z,27.45
2023-06-19T01:45:17.032Z,22.65
2023-06-19T01:46:21.999Z,32.03
2023-06-19T01:47:24.327Z,23.33
2023-06-19T01:48:29.236Z,19.88
2023-06-19T01:49:31.370Z,23.17
2023-06-19T01:50:36.029Z,25.15
2023-06-19T01:51:38.222Z,22.00
2023-06-19T01:52:42.994Z,27.15
2023-06-19T01:53:47.674Z,32.28
2023-06-19T01:54:52.382Z,34.65
2023-06-19T01:55:54.634Z,31.23
2023-06-19T01:57:00.775Z,28.90
2023-06-19T01:58:02.928Z,34.88
2023-06-19T01:59:07.645Z,21.00
2023-06-19T02:00:11.640Z,33.63
2023-06-19T02:01:16.362Z,26.00
2023-06-19T02:02:18.512Z,22.27
2023-06-19T02:03:23.334Z,27.42
2023-06-19T02:04:25.565Z,24.58
2023-06-19T02:05:30.252Z,21.90
2023-06-19T02:06:32.602Z,23.90
2023-06-19T02:07:37.373Z,20.77
2023-06-19T02:08:39.484Z,22.00
2023-06-19T02:09:46.746Z,26.10
2023-06-19T02:10:49.103Z,34.20
2023-06-19T02:11:53.960Z,35.35
2023-06-19T02:12:56.085Z,48.85
2023-06-19T02:14:00.771Z,37.38
2023-06-19T02:15:03.051Z,27.13
2023-06-19T02:16:08.246Z,33.88
2023-06-19T02:17:10.463Z,33.33
2023-06-19T02:18:15.126Z,26.92
2023-06-19T02:19:17.362Z,27.42
2023-06-19T02:20:22.194Z,27.70
2023-06-19T02:21:24.611Z,22.90
2023-06-19T02:22:29.360Z,21.80
2023-06-19T02:23:31.554Z,19.58
2023-06-19T02:24:38.451Z,19.05
2023-06-19T02:25:43.738Z,22.58
2023-06-19T02:26:48.519Z,22.80
2023-06-19T02:27:50.632Z,26.20
2023-06-19T02:28:55.563Z,25.02
2023-06-19T02:29:57.634Z,27.02
2023-06-19T02:31:02.296Z,28.13
2023-06-19T02:32:04.888Z,17.70
2023-06-19T02:33:09.844Z,22.60
2023-06-19T02:34:11.990Z,14.90
2023-06-19T02:35:16.944Z,18.95
2023-06-19T02:36:20.874Z,20.98
2023-06-19T02:37:25.632Z,15.90
2023-06-19T02:38:28.233Z,20.63
2023-06-19T02:39:33.554Z,13.82
2023-06-19T02:40:35.678Z,17.10
2023-06-19T02:41:46.962Z,14.25
2023-06-19T02:42:49.060Z,16.13
2023-06-19T02:43:53.793Z,15.52
2023-06-19T02:44:55.913Z,17.05
2023-06-19T02:46:00.650Z,15.55
2023-06-19T02:47:02.833Z,18.80
2023-06-19T02:48:08.598Z,11.35
2023-06-19T02:49:10.708Z,13.93
2023-06-19T02:50:15.446Z,19.55
2023-06-19T02:51:17.637Z,16.20
2023-06-19T02:52:22.635Z,17.33
2023-06-19T02:53:24.708Z,15.90
2023-06-19T02:54:29.404Z,16.52
2023-06-19T02:55:31.504Z,16.90
2023-06-19T02:56:36.216Z,14.43
2023-06-19T02:57:40.862Z,19.55
2023-06-19T02:58:45.571Z,13.18
2023-06-19T02:59:50.143Z,18.90
2023-06-19T03:00:55.020Z,22.55
2023-06-19T03:01:57.211Z,15.23
2023-06-19T03:03:01.914Z,16.90
2023-06-19T03:04:04.416Z,13.77
2023-06-19T03:05:10.048Z,16.63
2023-06-19T03:06:12.192Z,17.15
2023-06-19T03:07:17.999Z,15.95
2023-06-19T03:08:20.193Z,14.82
2023-06-19T03:09:24.876Z,18.60
2023-06-19T03:10:27.374Z,19.60
2023-06-19T03:11:32.168Z,18.30
2023-06-19T03:12:34.277Z,16.10
2023-06-19T03:13:49.649Z,12.32
2023-06-19T03:14:51.776Z,16.50
2023-06-19T03:15:56.509Z,21.58
2023-06-19T03:16:58.747Z,13.32
2023-06-19T03:18:05.785Z,20.15
2023-06-19T03:19:07.950Z,13.00
2023-06-19T03:20:14.094Z,14.35
2023-06-19T03:21:17.209Z,16.27
2023-06-19T03:22:23.380Z,20.15
2023-06-19T03:23:25.485Z,16.13
2023-06-19T03:24:30.189Z,13.00
2023-06-19T03:25:36.297Z,18.08
2023-06-19T03:26:41.122Z,16.67
2023-06-19T03:27:43.258Z,13.40
2023-06-19T03:28:50.942Z,20.95
2023-06-19T03:29:53.144Z,15.52
2023-06-19T03:30:58.409Z,17.17
2023-06-19T03:32:00.577Z,19.58
2023-06-19T03:33:05.341Z,16.55
2023-06-19T03:34:07.574Z,15.35
2023-06-19T03:35:12.875Z,15.57
2023-06-19T03:36:17.595Z,16.70
2023-06-19T03:37:19.703Z,20.10
2023-06-19T03:38:24.520Z,14.27
2023-06-19T03:39:26.639Z,13.10
2023-06-19T03:40:32.415Z,16.58
2023-06-19T03:41:34.731Z,13.23
2023-06-19T03:42:39.504Z,13.80
2023-06-19T03:43:41.622Z,16.80
2023-06-19T03:44:48.888Z,12.85
2023-06-19T03:45:51.062Z,17.92
2023-06-19T03:46:55.870Z,23.52
2023-06-19T03:47:58.034Z,23.55
2023-06-19T03:49:03.981Z,22.38
2023-06-19T03:50:20.911Z,25.15
2023-06-19T03:51:26.487Z,23.85
2023-06-19T03:52:28.796Z,17.02
2023-06-19T03:53:33.487Z,24.17
2023-06-19T03:54:35.563Z,15.10
2023-06-19T03:55:40.321Z,17.75
2023-06-19T03:56:42.441Z,20.45
2023-06-19T03:57:47.214Z,19.73
2023-06-19T03:58:49.346Z,19.63
2023-06-19T03:59:56.826Z,19.65
2023-06-19T04:00:58.908Z,24.42
2023-06-19T04:02:04.936Z,19.45
2023-06-19T04:03:07.158Z,22.33
2023-06-19T04:04:11.926Z,18.05
2023-06-19T04:05:14.954Z,17.85
2023-06-19T04:06:19.681Z,16.83
2023-06-19T04:07:21.850Z,19.42
2023-06-19T04:08:26.532Z,21.30
2023-06-19T04:09:28.887Z,21.85
2023-06-19T04:10:35.292Z,24.40
2023-06-19T04:11:38.214Z,15.23
2023-06-19T04:12:43.869Z,18.45
2023-06-19T04:13:46.034Z,22.63
2023-06-19T04:14:50.777Z,18.52
2023-06-19T04:15:55.519Z,22.10
2023-06-19T04:17:00.233Z,23.65
2023-06-19T04:18:02.496Z,20.33
2023-06-19T04:19:07.279Z,29.02
2023-06-19T04:20:12.679Z,25.92
2023-06-19T04:21:18.455Z,18.80
2023-06-19T04:22:20.608Z,21.98
2023-06-19T04:23:25.325Z,24.92
2023-06-19T04:24:27.543Z,16.00
2023-06-19T04:25:32.308Z,20.85
2023-06-19T04:26:34.430Z,23.30
2023-06-19T04:27:39.183Z,16.20
2023-06-19T04:28:41.424Z,20.52
2023-06-19T04:29:46.156Z,20.65
2023-06-19T04:30:48.306Z,18.55
2023-06-19T04:31:55.992Z,23.48
2023-06-19T04:32:58.739Z,24.13
2023-06-19T04:34:05.918Z,22.90
2023-06-19T04:35:09.161Z,17.85
2023-06-19T04:36:14.015Z,18.02
2023-06-19T04:37:20.284Z,23.63
2023-06-19T04:38:25.982Z,22.52
2023-06-19T04:39:28.093Z,25.05
2023-06-19T04:40:33.581Z,22.85
2023-06-19T04:41:39.666Z,17.55
2023-06-19T04:42:41.810Z,15.60
2023-06-19T04:43:46.661Z,19.67
2023-06-19T04:44:49.286Z,25.88
2023-06-19T04:45:54.827Z,17.48
2023-06-19T04:47:02.356Z,26.70
2023-06-19T04:48:07.773Z,26.65
2023-06-19T04:49:10.519Z,22.05
2023-06-19T04:50:16.917Z,20.52
2023-06-19T04:51:22.221Z,16.92
2023-06-19T04:52:27.155Z,19.38
2023-06-19T04:53:29.343Z,17.02
2023-06-19T04:54:34.736Z,27.13
2023-06-19T04:55:36.891Z,15.43
2023-06-19T04:56:41.724Z,21.77
2023-06-19T04:57:43.801Z,14.50
2023-06-19T04:58:50.305Z,22.70
2023-06-19T04:59:52.430Z,26.27
2023-06-19T05:00:57.143Z,33.70
2023-06-19T05:02:01.864Z,17.88
2023-06-19T05:03:06.888Z,19.98
2023-06-19T05:04:09.090Z,24.20
2023-06-19T05:05:14.013Z,14.60
2023-06-19T05:06:16.196Z,13.27
2023-06-19T05:07:20.991Z,20.38
2023-06-19T05:08:25.662Z,16.30
2023-06-19T05:09:27.848Z,12.45
2023-06-19T05:10:32.504Z,16.90
2023-06-19T05:11:34.636Z,13.80
2023-06-19T05:12:39.555Z,13.30
2023-06-19T05:13:41.727Z,18.38
2023-06-19T05:14:46.354Z,15.35
2023-06-19T05:15:49.915Z,28.65
2023-06-19T05:16:54.757Z,21.42
2023-06-19T05:17:59.532Z,23.52
2023-06-19T05:19:04.459Z,25.98
2023-06-19T05:20:08.639Z,20.45
2023-06-19T05:21:13.937Z,19.95
2023-06-19T05:22:16.153Z,29.98
2023-06-19T05:23:20.829Z,21.13
2023-06-19T05:24:22.995Z,17.80
2023-06-19T05:25:28.889Z,21.42
2023-06-19T05:26:31.068Z,17.20
2023-06-19T05:27:35.743Z,23.83
2023-06-19T05:28:37.836Z,21.80
2023-06-19T05:29:42.937Z,24.00
2023-06-19T05:30:46.254Z,14.55
2023-06-19T05:31:51.583Z,16.77
2023-06-19T05:32:54.212Z,19.80
2023-06-19T05:34:02.672Z,18.30
2023-06-19T05:35:06.032Z,27.40
2023-06-19T05:36:11.370Z,42.42
2023-06-19T05:37:13.902Z,17.35
2023-06-19T05:38:18.891Z,23.23
2023-06-19T05:39:21.206Z,24.27
2023-06-19T05:40:26.569Z,26.25
2023-06-19T05:41:28.990Z,19.98
2023-06-19T05:42:34.289Z,55.85
2023-06-19T05:43:36.919Z,18.63
2023-06-19T05:44:42.533Z,14.82
2023-06-19T05:45:45.119Z,19.27
2023-06-19T05:46:50.558Z,15.95
2023-06-19T05:47:53.007Z,39.90
2023-06-19T05:48:59.128Z,22.00
2023-06-19T05:50:04.629Z,21.80
2023-06-19T05:51:09.898Z,20.50
2023-06-19T05:52:12.619Z,16.60
2023-06-19T05:53:17.758Z,16.77
2023-06-19T05:54:22.975Z,24.52
2023-06-19T05:55:26.370Z,18.38
2023-06-19T05:56:31.872Z,19.00
2023-06-19T05:57:35.102Z,22.35
2023-06-19T05:58:40.676Z,14.65
2023-06-19T05:59:43.504Z,15.68
2023-06-19T06:00:48.806Z,20.40
2023-06-19T06:01:52.180Z,14.75
2023-06-19T06:02:57.975Z,16.45
2023-06-19T06:04:03.050Z,18.88
2023-06-19T06:05:12.989Z,23.13
2023-06-19T06:06:18.383Z,14.38
2023-06-19T06:07:21.103Z,18.83
2023-06-19T06:08:26.426Z,16.05
2023-06-19T06:09:29.224Z,12.75
2023-06-19T06:10:34.526Z,19.80
2023-06-19T06:11:37.019Z,13.23
2023-06-19T06:12:42.444Z,13.90
2023-06-19T06:13:44.821Z,16.17
2023-06-19T06:14:49.944Z,17.80
2023-06-19T06:15:52.383Z,15.15
2023-06-19T06:16:57.881Z,16.00
2023-06-19T06:18:00.666Z,17.35
2023-06-19T06:19:05.611Z,14.45
2023-06-19T06:20:13.867Z,13.80
2023-06-19T06:21:18.882Z,18.25
2023-06-19T06:22:21.175Z,19.65
2023-06-19T06:23:26.273Z,44.42
2023-06-19T06:24:28.718Z,36.92
2023-06-19T06:25:34.009Z,54.28
2023-06-19T06:26:37.008Z,23.45
2023-06-19T06:27:42.033Z,23.50
2023-06-19T06:28:45.021Z,22.42
2023-06-19T06:29:50.118Z,19.95
2023-06-19T06:30:54.982Z,16.25
2023-06-19T06:32:08.875Z,17.95
2023-06-19T06:33:11.292Z,24.33
2023-06-19T06:34:16.180Z,26.02
2023-06-19T06:35:21.376Z,17.52
2023-06-19T06:36:36.127Z,22.25
2023-06-19T06:37:43.152Z,14.32
2023-06-19T06:38:45.404Z,12.63
2023-06-19T06:39:50.480Z,15.88
2023-06-19T06:40:55.436Z,21.30
2023-06-19T06:41:57.880Z,15.23
2023-06-19T06:43:02.961Z,15.60
2023-06-19T06:44:06.953Z,21.90
2023-06-19T06:45:12.603Z,77.55
2023-06-19T06:46:15.937Z,33.25
2023-06-19T06:47:20.867Z,16.85
2023-06-19T06:48:25.964Z,25.00
2023-06-19T06:49:28.141Z,13.25
2023-06-19T06:50:36.512Z,12.57
2023-06-19T06:51:41.878Z,14.27
2023-06-19T06:52:46.779Z,17.23
2023-06-19T06:53:49.157Z,14.38
2023-06-19T06:54:54.615Z,18.58
2023-06-19T06:55:57.136Z,14.73
2023-06-19T06:57:02.226Z,15.32
2023-06-19T06:58:07.153Z,16.95
2023-06-19T06:59:09.565Z,15.55
2023-06-19T07:00:16.218Z,36.00
2023-06-19T07:01:21.448Z,34.58
2023-06-19T07:02:23.851Z,13.52
2023-06-19T07:03:31.358Z,12.35
2023-06-19T07:04:33.851Z,21.20
2023-06-19T07:05:41.603Z,20.70
2023-06-19T07:06:43.789Z,16.75
2023-06-19T07:07:48.753Z,13.55
2023-06-19T07:08:51.058Z,12.35
2023-06-19T07:09:56.019Z,10.98
2023-06-19T07:10:58.423Z,18.90
2023-06-19T07:12:05.589Z,14.18
2023-06-19T07:13:08.024Z,15.93
2023-06-19T07:14:13.332Z,18.60
2023-06-19T07:15:16.373Z,17.98
2023-06-19T07:16:21.332Z,12.73
2023-06-19T07:17:24.366Z,13.93
2023-06-19T07:18:29.501Z,14.50
2023-06-19T07:19:34.656Z,12.50
2023-06-19T07:20:39.525Z,10.98
2023-06-19T07:21:44.755Z,12.00
2023-06-19T07:22:47.476Z,14.20
2023-06-19T07:23:52.835Z,12.48
2023-06-19T07:24:58.087Z,11.95
2023-06-19T07:26:00.536Z,34.53
2023-06-19T07:27:05.697Z,47.45
2023-06-19T07:28:10.871Z,16.08
2023-06-19T07:29:13.356Z,19.73
2023-06-19T07:30:18.488Z,17.02
2023-06-19T07:31:23.497Z,13.65
2023-06-19T07:32:28.560Z,12.90
2023-06-19T07:33:31.178Z,14.75
2023-06-19T07:34:36.122Z,14.40
2023-06-19T07:35:41.337Z,10.90
2023-06-19T07:36:46.427Z,17.73
2023-06-19T07:37:48.859Z,14.07
2023-06-19T07:38:54.068Z,16.10
2023-06-19T07:39:59.329Z,15.95
2023-06-19T07:41:01.817Z,14.13
2023-06-19T07:42:07.380Z,15.50
2023-06-19T07:43:09.925Z,11.30
2023-06-19T07:44:14.819Z,15.38
2023-06-19T07:45:20.209Z,21.80
2023-06-19T07:46:22.744Z,14.82
2023-06-19T07:47:28.020Z,19.83
2023-06-19T07:48:30.660Z,19.58
2023-06-19T07:49:35.865Z,12.65
2023-06-19T07:50:41.165Z,16.58
2023-06-19T07:51:46.224Z,16.70
2023-06-19T07:52:48.645Z,18.33
2023-06-19T07:53:53.441Z,16.38
2023-06-19T07:54:59.813Z,18.40
2023-06-19T07:56:04.872Z,19.00
2023-06-19T07:57:07.802Z,20.80
2023-06-19T07:58:13.026Z,21.98
2023-06-19T07:59:18.224Z,21.67
2023-06-19T08:00:20.887Z,17.30
2023-06-19T08:01:25.962Z,14.25
2023-06-19T08:02:29.219Z,15.98
2023-06-19T08:03:34.534Z,13.45
2023-06-19T08:04:37.553Z,17.63
2023-06-19T08:05:45.339Z,18.52
2023-06-19T08:06:47.786Z,19.88
2023-06-19T08:07:52.800Z,14.48
2023-06-19T08:08:55.233Z,30.52
2023-06-19T08:10:12.412Z,18.45
2023-06-19T08:11:18.895Z,25.92
2023-06-19T08:12:21.363Z,21.52
2023-06-19T08:13:26.445Z,16.70
2023-06-19T08:14:28.828Z,17.45
2023-06-19T08:15:33.760Z,26.98
2023-06-19T08:16:38.920Z,17.45
2023-06-19T08:17:41.945Z,23.98
2023-06-19T08:18:47.692Z,27.75
2023-06-19T08:19:53.895Z,14.65
2023-06-19T08:21:01.536Z,16.85
2023-06-19T08:22:07.055Z,16.52
2023-06-19T08:23:12.121Z,25.40
2023-06-19T08:24:14.628Z,18.92
2023-06-19T08:25:19.938Z,28.67
2023-06-19T08:26:22.418Z,19.05
2023-06-19T08:27:27.458Z,14.07
2023-06-19T08:28:32.392Z,17.15
2023-06-19T08:29:37.703Z,19.77
2023-06-19T08:30:40.045Z,19.40
2023-06-19T08:31:45.014Z,19.13
2023-06-19T08:32:50.981Z,22.15
2023-06-19T08:33:55.994Z,19.58
2023-06-19T08:34:58.469Z,26.15
2023-06-19T08:36:06.613Z,23.55
2023-06-19T08:37:09.650Z,23.58
2023-06-19T08:38:14.690Z,26.05
2023-06-19T08:39:21.694Z,19.10
2023-06-19T08:40:24.737Z,23.13
2023-06-19T08:41:30.106Z,20.23
2023-06-19T08:42:32.290Z,16.42
2023-06-19T08:43:37.358Z,20.25
2023-06-19T08:44:42.492Z,21.45
2023-06-19T08:45:45.275Z,19.80
2023-06-19T08:46:50.212Z,24.10
2023-06-19T08:48:03.952Z,22.52
2023-06-19T08:49:07.745Z,23.48
2023-06-19T08:50:13.354Z,24.45
2023-06-19T08:51:18.432Z,18.67
2023-06-19T08:52:23.497Z,27.00
2023-06-19T08:53:28.459Z,17.42
2023-06-19T08:54:33.573Z,15.82
2023-06-19T08:55:36.879Z,23.13
2023-06-19T08:56:41.781Z,18.58
2023-06-19T08:57:44.343Z,14.95
2023-06-19T08:58:49.486Z,25.90
2023-06-19T08:59:53.917Z,21.30
2023-06-19T09:01:03.411Z,20.20
2023-06-19T09:02:09.188Z,29.75
2023-06-19T09:03:14.029Z,18.73
2023-06-19T09:04:20.762Z,31.08
2023-06-19T09:05:23.347Z,26.75
2023-06-19T09:06:31.168Z,18.55
2023-06-19T09:07:33.913Z,31.55
2023-06-19T09:08:39.209Z,21.05
2023-06-19T09:09:49.778Z,19.88
2023-06-19T09:11:05.123Z,25.38
2023-06-19T09:12:10.969Z,30.98
2023-06-19T09:13:16.335Z,26.75
2023-06-19T09:14:18.907Z,25.83
2023-06-19T09:15:24.968Z,28.95
2023-06-19T09:16:38.577Z,16.55
2023-06-19T09:17:43.623Z,19.90
2023-06-19T09:18:50.033Z,24.15
2023-06-19T09:19:54.172Z,23.70
2023-06-19T09:20:59.523Z,15.70
2023-06-19T09:22:09.448Z,13.68
2023-06-19T09:23:13.533Z,16.60
2023-06-19T09:24:18.900Z,22.58
2023-06-19T09:25:21.930Z,31.38
2023-06-19T09:26:27.431Z,27.95
2023-06-19T09:27:34.493Z,24.30
2023-06-19T09:28:45.025Z,20.05
2023-06-19T09:29:51.628Z,23.75
2023-06-19T09:31:01.607Z,19.30
2023-06-19T09:32:17.641Z,23.85
2023-06-19T09:33:20.331Z,30.98
2023-06-19T09:34:25.537Z,22.70
2023-06-19T09:35:30.586Z,21.60
2023-06-19T09:36:33.585Z,19.85
2023-06-19T09:37:43.562Z,19.25
2023-06-19T09:38:48.182Z,24.55
2023-06-19T09:39:56.718Z,26.75
2023-06-19T09:41:02.277Z,25.17
2023-06-19T09:42:10.596Z,48.35
2023-06-19T09:43:14.892Z,35.30
2023-06-19T09:44:24.293Z,43.42
2023-06-19T09:45:30.591Z,26.42
2023-06-19T09:46:39.729Z,27.10
2023-06-19T09:47:49.015Z,45.00
2023-06-19T09:48:59.924Z,26.87
2023-06-19T09:50:04.481Z,28.27
2023-06-19T09:51:16.022Z,27.20
2023-06-19T09:53:27.602Z,47.53
2023-06-19T09:54:33.581Z,42.10
2023-06-19T09:55:38.826Z,31.27
2023-06-19T09:56:44.318Z,27.38
2023-06-19T09:57:47.465Z,32.15
2023-06-19T09:58:55.449Z,34.90
2023-06-19T10:00:11.059Z,35.53
2023-06-19T10:01:19.958Z,45.72
2023-06-19T10:02:24.056Z,40.90
2023-06-19T10:03:35.347Z,53.50
2023-06-19T10:04:46.383Z,37.83
2023-06-19T10:05:51.714Z,35.28
2023-06-19T10:06:58.877Z,32.75
2023-06-19T10:08:02.462Z,24.25
2023-06-19T10:09:14.759Z,31.63
2023-06-19T10:10:25.083Z,38.58
2023-06-19T10:11:31.057Z,28.83
2023-06-19T10:12:37.929Z,36.70
2023-06-19T10:13:45.267Z,46.78
2023-06-19T10:14:49.191Z,53.60
2023-06-19T10:15:53.943Z,49.83
2023-06-19T10:16:58.881Z,45.42
2023-06-19T10:18:04.286Z,48.08
2023-06-19T10:19:16.079Z,47.22
2023-06-19T10:20:32.552Z,59.83
2023-06-19T10:21:49.170Z,36.97
2023-06-19T10:22:58.507Z,55.75
2023-06-19T10:24:05.984Z,49.08
2023-06-19T10:25:22.224Z,56.95
2023-06-19T10:26:34.380Z,76.35
2023-06-19T10:27:39.220Z,64.38
2023-06-19T10:28:51.043Z,63.03
2023-06-19T10:29:59.594Z,77.13
2023-06-19T10:31:12.958Z,57.35
2023-06-19T10:32:15.161Z,64.80
2023-06-19T10:33:19.925Z,71.63
2023-06-19T10:34:22.262Z,67.45
2023-06-19T10:35:27.971Z,70.97
2023-06-19T10:36:30.152Z,76.50
2023-06-19T10:37:37.776Z,65.25
2023-06-19T10:38:42.488Z,71.72
2023-06-19T10:39:45.374Z,162.68
2023-06-19T10:40:52.857Z,89.82
2023-06-19T10:41:55.097Z,96.15
2023-06-19T10:42:59.948Z,85.13
2023-06-19T10:44:05.281Z,61.42
2023-06-19T10:45:13.397Z,101.03
2023-06-19T10:46:15.721Z,108.07
2023-06-19T10:47:20.577Z,113.85
2023-06-19T10:48:27.123Z,113.88
2023-06-19T10:49:29.578Z,97.57
2023-06-19T10:50:37.779Z,92.57
2023-06-19T10:51:41.352Z,157.85
2023-06-19T10:52:47.225Z,107.45
2023-06-19T10:53:51.996Z,88.32
2023-06-19T10:54:58.212Z,135.25
2023-06-19T10:56:07.418Z,77.28
2023-06-19T10:57:09.675Z,64.68
2023-06-19T10:58:14.468Z,84.45
2023-06-19T10:59:19.818Z,94.53
2023-06-19T11:00:29.940Z,81.57
2023-06-19T11:01:36.869Z,70.40
2023-06-19T11:02:44.986Z,79.63
2023-06-19T11:03:47.406Z,75.70
2023-06-19T11:04:52.539Z,62.13
2023-06-19T11:05:57.341Z,98.13
2023-06-19T11:07:06.709Z,72.55
2023-06-19T11:08:11.455Z,55.03
2023-06-19T11:09:17.420Z,79.93
2023-06-19T11:10:21.864Z,87.53
2023-06-19T11:11:38.843Z,84.00
2023-06-19T11:12:41.063Z,72.70
2023-06-19T11:13:46.924Z,98.75
2023-06-19T11:14:52.679Z,130.30
2023-06-19T11:15:57.450Z,82.03
2023-06-19T11:16:59.835Z,71.13
2023-06-19T11:18:06.347Z,75.95
2023-06-19T11:19:12.176Z,58.28
2023-06-19T11:20:17.621Z,95.68
2023-06-19T11:21:19.800Z,83.47
2023-06-19T11:22:24.608Z,89.05
2023-06-19T11:23:28.172Z,90.55
2023-06-19T11:24:33.779Z,80.07
2023-06-19T11:25:39.880Z,56.08
2023-06-19T11:26:50.755Z,66.78
2023-06-19T11:27:55.964Z,72.22
2023-06-19T11:28:58.082Z,94.22
2023-06-19T11:30:05.679Z,97.40
2023-06-19T11:31:08.573Z,58.30
2023-06-19T11:32:16.363Z,71.53
2023-06-19T11:33:23.564Z,79.70
2023-06-19T11:34:37.991Z,90.80
2023-06-19T11:35:43.084Z,76.65
2023-06-19T11:36:45.787Z,100.63
2023-06-19T11:37:50.595Z,522.58
2023-06-19T11:38:53.142Z,1032.18
2023-06-19T11:40:01.132Z,242.23
2023-06-19T11:41:06.704Z,152.77
2023-06-19T11:42:11.837Z,157.80
2023-06-19T11:43:27.500Z,96.68
2023-06-19T11:44:32.193Z,141.45
2023-06-19T11:45:34.351Z,78.93
2023-06-19T11:46:39.198Z,129.52
2023-06-19T11:47:44.142Z,129.50
2023-06-19T11:48:59.449Z,253.05
2023-06-19T11:50:12.224Z,344.63
2023-06-19T11:51:14.357Z,1314.45
2023-06-19T11:52:19.477Z,1319.93
2023-06-19T11:53:24.574Z,26.45
2023-06-19T11:54:26.748Z,23.63
2023-06-19T11:55:31.436Z,19.98
2023-06-19T11:56:36.191Z,21.95
2023-06-19T11:57:44.936Z,15.73
2023-06-19T11:58:49.836Z,16.13
2023-06-19T11:59:54.519Z,17.75
2023-06-19T12:00:57.679Z,13.75
2023-06-19T12:02:02.516Z,12.93
2023-06-19T12:03:07.475Z,15.77
2023-06-19T12:04:09.905Z,17.00
2023-06-19T12:05:15.586Z,11.73
2023-06-19T12:06:19.096Z,16.63
2023-06-19T12:07:23.949Z,14.15
2023-06-19T12:08:29.078Z,14.20
2023-06-19T12:09:31.270Z,12.70
2023-06-19T12:10:36.420Z,17.27
2023-06-19T12:11:38.557Z,13.80
2023-06-19T12:12:45.836Z,13.30
2023-06-19T12:13:48.550Z,14.55
2023-06-19T12:14:53.289Z,21.92
2023-06-19T12:15:58.143Z,22.70
2023-06-19T12:17:00.339Z,15.02
2023-06-19T12:18:05.356Z,14.13
2023-06-19T12:19:07.859Z,17.67
2023-06-19T12:20:14.940Z,21.95
2023-06-19T12:21:32.828Z,23.10
2023-06-19T12:22:39.496Z,32.92
2023-06-19T12:23:41.822Z,34.88
2023-06-19T12:24:46.582Z,30.08
2023-06-19T12:25:48.877Z,21.27
2023-06-19T12:26:53.603Z,36.15
2023-06-19T12:28:00.917Z,22.58
2023-06-19T12:29:03.302Z,24.63
2023-06-19T12:30:09.815Z,26.88
2023-06-19T12:31:14.573Z,22.10
2023-06-19T12:32:19.441Z,19.38
2023-06-19T12:33:22.031Z,40.08
2023-06-19T12:34:30.995Z,45.65
2023-06-19T12:35:33.611Z,28.20
2023-06-19T12:36:38.418Z,26.80
2023-06-19T12:37:43.311Z,23.90
2023-06-19T12:38:49.196Z,41.78
2023-06-19T12:39:54.512Z,27.27
2023-06-19T12:40:56.645Z,23.33
2023-06-19T12:42:01.570Z,35.35
2023-06-19T12:43:06.348Z,22.67
2023-06-19T12:44:11.104Z,34.40
2023-06-19T12:45:14.090Z,43.92
2023-06-19T12:46:19.055Z,29.15
2023-06-19T12:47:23.950Z,34.85
2023-06-19T12:48:26.445Z,41.88
2023-06-19T12:49:31.328Z,35.88
2023-06-19T12:50:36.469Z,29.90
2023-06-19T12:51:41.246Z,27.10
2023-06-19T12:52:46.061Z,23.10
2023-06-19T12:53:48.234Z,31.83
2023-06-19T12:54:52.938Z,24.00
2023-06-19T12:56:01.575Z,18.45
2023-06-19T12:57:09.847Z,21.80
2023-06-19T12:58:17.289Z,10.50
2023-06-19T12:59:19.496Z,16.50
2023-06-19T13:00:24.756Z,12.73
2023-06-19T13:01:27.237Z,12.52
2023-06-19T13:02:32.543Z,22.10
2023-06-19T13:03:34.880Z,14.23
2023-06-19T13:04:39.722Z,9.20
2023-06-19T13:05:41.951Z,9.60
2023-06-19T13:06:46.681Z,11.60
2023-06-19T13:07:48.902Z,11.15
2023-06-19T13:08:53.664Z,12.75
2023-06-19T13:09:55.830Z,12.90
2023-06-19T13:11:00.524Z,10.23
2023-06-19T13:12:05.240Z,21.10
2023-06-19T13:13:07.538Z,14.13
2023-06-19T13:14:14.872Z,25.75
2023-06-19T13:15:17.261Z,15.32
2023-06-19T13:16:33.466Z,17.70
2023-06-19T13:17:46.888Z,17.30
2023-06-19T13:18:49.028Z,12.07
2023-06-19T13:19:53.774Z,22.75
2023-06-19T13:20:56.420Z,18.23
2023-06-19T13:22:01.224Z,21.20
2023-06-19T13:23:03.382Z,10.82
2023-06-19T13:24:08.969Z,11.98
2023-06-19T13:25:11.327Z,20.55
2023-06-19T13:26:16.050Z,10.63
2023-06-19T13:27:20.954Z,11.80
2023-06-19T13:28:23.136Z,15.55
2023-06-19T13:29:30.738Z,25.42
2023-06-19T13:30:32.901Z,14.98
2023-06-19T13:31:37.669Z,21.30
2023-06-19T13:32:42.532Z,26.23
2023-06-19T13:33:47.592Z,42.38
2023-06-19T13:34:52.304Z,13.88
2023-06-19T13:35:54.446Z,19.17
2023-06-19T13:36:59.242Z,12.13
2023-06-19T13:38:01.506Z,13.68
2023-06-19T13:39:06.693Z,13.45
2023-06-19T13:40:10.062Z,15.45
2023-06-19T13:41:15.032Z,10.20
2023-06-19T13:42:19.938Z,22.52
2023-06-19T13:43:24.495Z,9.45
2023-06-19T13:44:31.875Z,10.25
2023-06-19T13:45:35.103Z,13.45
2023-06-19T13:46:39.899Z,9.30
2023-06-19T13:47:44.648Z,11.13
2023-06-19T13:48:49.948Z,10.60
2023-06-19T13:49:54.737Z,10.02
2023-06-19T13:50:56.901Z,12.73
2023-06-19T13:52:01.737Z,8.60
2023-06-19T13:53:03.875Z,8.77
2023-06-19T13:54:09.209Z,7.97
2023-06-19T13:55:11.379Z,13.07
2023-06-19T13:56:17.060Z,16.50
2023-06-19T13:57:21.904Z,16.42
2023-06-19T13:58:24.080Z,20.40
2023-06-19T13:59:31.618Z,23.48